sensor_id;sensor_type;location;lat;lon;timestamp;P1;durP1;ratioP1;P2;durP2;ratioP2
58756;SDS011;44527;47.460;19.016;2023-06-14T00:01:05;7.47;;;3.40;;
58756;SDS011;44527;47.460;19.016;2023-06-14T00:04:08;5.75;;;2.97;;
58756;SDS011;44527;47.460;19.016;2023-06-14T00:07:11;10.18;;;3.42;;
58756;SDS011;44527;47.460;19.016;2023-06-14T00:10:16;7.75;;;3.35;;
58756;SDS011;44527;47.460;19.016;2023-06-14T00:13:19;10.77;;;3.72;;
58756;SDS011;44527;47.460;19.016;2023-06-14T00:16:22;5.50;;;2.87;;
58756;SDS011;44527;47.460;19.016;2023-06-14T00:19:25;8.15;;;2.92;;
58756;SDS011;44527;47.460;19.016;2023-06-14T00:22:28;6.32;;;2.90;;
58756;SDS011;44527;47.460;19.016;2023-06-14T00:25:32;6.78;;;3.22;;
58756;SDS011;44527;47.460;19.016;2023-06-14T00:28:35;9.88;;;2.92;;
58756;SDS011;44527;47.460;19.016;2023-06-14T00:31:40;8.85;;;2.87;;
58756;SDS011;44527;47.460;19.016;2023-06-14T00:34:43;9.43;;;3.12;;
58756;SDS011;44527;47.460;19.016;2023-06-14T00:37:45;7.57;;;3.20;;
58756;SDS011;44527;47.460;19.016;2023-06-14T00:40:48;6.35;;;3.10;;
58756;SDS011;44527;47.460;19.016;2023-06-14T00:43:50;8.55;;;3.45;;
58756;SDS011;44527;47.460;19.016;2023-06-14T00:46:53;7.45;;;4.03;;
58756;SDS011;44527;47.460;19.016;2023-06-14T00:49:57;4.70;;;2.72;;
58756;SDS011;44527;47.460;19.016;2023-06-14T00:53:02;8.30;;;3.53;;
58756;SDS011;44527;47.460;19.016;2023-06-14T00:56:05;5.40;;;3.17;;
58756;SDS011;44527;47.460;19.016;2023-06-14T00:59:08;9.57;;;3.55;;
58756;SDS011;44527;47.460;19.016;2023-06-14T01:02:11;9.02;;;3.42;;
58756;SDS011;44527;47.460;19.016;2023-06-14T01:05:14;7.45;;;3.60;;
58756;SDS011;44527;47.460;19.016;2023-06-14T01:08:23;8.40;;;3.30;;
58756;SDS011;44527;47.460;19.016;2023-06-14T01:11:31;6.18;;;3.60;;
58756;SDS011;44527;47.460;19.016;2023-06-14T01:14:40;11.88;;;4.15;;
58756;SDS011;44527;47.460;19.016;2023-06-14T01:17:44;10.57;;;4.05;;
58756;SDS011;44527;47.460;19.016;2023-06-14T01:20:48;6.53;;;4.12;;
58756;SDS011;44527;47.460;19.016;2023-06-14T01:23:52;7.07;;;3.62;;
58756;SDS011;44527;47.460;19.016;2023-06-14T01:26:55;7.35;;;3.97;;
58756;SDS011;44527;47.460;19.016;2023-06-14T01:30:02;7.57;;;3.87;;
58756;SDS011;44527;47.460;19.016;2023-06-14T01:33:05;7.43;;;4.45;;
58756;SDS011;44527;47.460;19.016;2023-06-14T01:36:08;11.02;;;4.65;;
58756;SDS011;44527;47.460;19.016;2023-06-14T01:39:12;10.32;;;4.93;;
58756;SDS011;44527;47.460;19.016;2023-06-14T01:42:17;8.98;;;4.40;;
58756;SDS011;44527;47.460;19.016;2023-06-14T01:45:20;8.95;;;4.12;;
58756;SDS011;44527;47.460;19.016;2023-06-14T01:48:24;9.18;;;4.40;;
58756;SDS011;44527;47.460;19.016;2023-06-14T01:51:27;8.05;;;4.55;;
58756;SDS011;44527;47.460;19.016;2023-06-14T01:54:30;10.23;;;4.90;;
58756;SDS011;44527;47.460;19.016;2023-06-14T01:57:32;8.85;;;4.45;;
58756;SDS011;44527;47.460;19.016;2023-06-14T02:00:35;7.00;;;4.70;;
58756;SDS011;44527;47.460;19.016;2023-06-14T02:03:38;10.80;;;4.50;;
58756;SDS011;44527;47.460;19.016;2023-06-14T02:06:41;9.75;;;4.87;;
58756;SDS011;44527;47.460;19.016;2023-06-14T02:09:43;9.10;;;5.53;;
58756;SDS011;44527;47.460;19.016;2023-06-14T02:12:46;9.73;;;5.22;;
58756;SDS011;44527;47.460;19.016;2023-06-14T02:15:48;15.35;;;5.45;;
58756;SDS011;44527;47.460;19.016;2023-06-14T02:18:56;11.60;;;5.85;;
58756;SDS011;44527;47.460;19.016;2023-06-14T02:21:59;14.18;;;5.97;;
58756;SDS011;44527;47.460;19.016;2023-06-14T02:25:02;13.43;;;6.00;;
58756;SDS011;44527;47.460;19.016;2023-06-14T02:28:05;12.45;;;6.43;;
58756;SDS011;44527;47.460;19.016;2023-06-14T02:31:07;15.23;;;7.07;;
58756;SDS011;44527;47.460;19.016;2023-06-14T02:34:10;10.75;;;6.22;;
58756;SDS011;44527;47.460;19.016;2023-06-14T02:37:12;10.68;;;5.78;;
58756;SDS011;44527;47.460;19.016;2023-06-14T02:40:15;13.85;;;6.82;;
58756;SDS011;44527;47.460;19.016;2023-06-14T02:43:18;13.25;;;7.22;;
58756;SDS011;44527;47.460;19.016;2023-06-14T02:46:20;13.48;;;7.25;;
58756;SDS011;44527;47.460;19.016;2023-06-14T02:49:23;11.73;;;6.55;;
58756;SDS011;44527;47.460;19.016;2023-06-14T02:52:26;14.38;;;7.03;;
58756;SDS011;44527;47.460;19.016;2023-06-14T02:55:29;16.60;;;7.60;;
58756;SDS011;44527;47.460;19.016;2023-06-14T02:58:31;14.43;;;6.72;;
58756;SDS011;44527;47.460;19.016;2023-06-14T03:01:35;12.80;;;6.95;;
58756;SDS011;44527;47.460;19.016;2023-06-14T03:04:38;16.50;;;7.05;;
58756;SDS011;44527;47.460;19.016;2023-06-14T03:07:41;12.65;;;6.60;;
58756;SDS011;44527;47.460;19.016;2023-06-14T03:10:48;15.32;;;6.25;;
58756;SDS011;44527;47.460;19.016;2023-06-14T03:13:51;11.27;;;6.32;;
58756;SDS011;44527;47.460;19.016;2023-06-14T03:16:54;12.18;;;6.15;;
58756;SDS011;44527;47.460;19.016;2023-06-14T03:19:59;11.40;;;6.07;;
58756;SDS011;44527;47.460;19.016;2023-06-14T03:23:03;12.77;;;5.78;;
58756;SDS011;44527;47.460;19.016;2023-06-14T03:26:07;9.50;;;5.80;;
58756;SDS011;44527;47.460;19.016;2023-06-14T03:29:10;11.07;;;5.95;;
58756;SDS011;44527;47.460;19.016;2023-06-14T03:32:13;11.40;;;5.97;;
58756;SDS011;44527;47.460;19.016;2023-06-14T03:35:16;11.63;;;6.20;;
58756;SDS011;44527;47.460;19.016;2023-06-14T03:38:19;12.60;;;6.35;;
58756;SDS011;44527;47.460;19.016;2023-06-14T03:41:24;14.77;;;7.85;;
58756;SDS011;44527;47.460;19.016;2023-06-14T03:44:27;12.63;;;6.97;;
58756;SDS011;44527;47.460;19.016;2023-06-14T03:47:30;11.57;;;5.97;;
58756;SDS011;44527;47.460;19.016;2023-06-14T03:50:33;20.95;;;6.57;;
58756;SDS011;44527;47.460;19.016;2023-06-14T03:53:36;14.95;;;6.47;;
58756;SDS011;44527;47.460;19.016;2023-06-14T03:56:55;11.55;;;5.90;;
58756;SDS011;44527;47.460;19.016;2023-06-14T03:59:59;13.40;;;6.75;;
58756;SDS011;44527;47.460;19.016;2023-06-14T04:03:02;13.07;;;6.62;;
58756;SDS011;44527;47.460;19.016;2023-06-14T04:06:07;11.00;;;5.90;;
58756;SDS011;44527;47.460;19.016;2023-06-14T04:09:09;13.62;;;7.43;;
58756;SDS011;44527;47.460;19.016;2023-06-14T04:12:12;15.73;;;6.85;;
58756;SDS011;44527;47.460;19.016;2023-06-14T04:15:14;14.25;;;6.55;;
58756;SDS011;44527;47.460;19.016;2023-06-14T04:18:24;16.75;;;7.15;;
58756;SDS011;44527;47.460;19.016;2023-06-14T04:21:26;9.75;;;6.22;;
58756;SDS011;44527;47.460;19.016;2023-06-14T04:24:32;16.65;;;6.68;;
58756;SDS011;44527;47.460;19.016;2023-06-14T04:27:34;13.30;;;6.75;;
58756;SDS011;44527;47.460;19.016;2023-06-14T04:30:39;12.10;;;6.20;;
58756;SDS011;44527;47.460;19.016;2023-06-14T04:33:42;11.15;;;6.32;;
58756;SDS011;44527;47.460;19.016;2023-06-14T04:36:47;13.45;;;6.32;;
58756;SDS011;44527;47.460;19.016;2023-06-14T04:39:56;14.50;;;6.97;;
58756;SDS011;44527;47.460;19.016;2023-06-14T04:42:59;12.98;;;6.65;;
58756;SDS011;44527;47.460;19.016;2023-06-14T04:46:01;12.75;;;6.45;;
58756;SDS011;44527;47.460;19.016;2023-06-14T04:49:05;9.65;;;5.90;;
58756;SDS011;44527;47.460;19.016;2023-06-14T04:52:08;10.43;;;6.28;;
58756;SDS011;44527;47.460;19.016;2023-06-14T04:55:13;8.32;;;5.82;;
58756;SDS011;44527;47.460;19.016;2023-06-14T04:58:16;8.75;;;6.43;;
58756;SDS011;44527;47.460;19.016;2023-06-14T05:01:19;8.27;;;5.87;;
58756;SDS011;44527;47.460;19.016;2023-06-14T05:04:25;8.65;;;5.85;;
58756;SDS011;44527;47.460;19.016;2023-06-14T05:07:30;11.65;;;6.37;;
58756;SDS011;44527;47.460;19.016;2023-06-14T05:10:33;12.55;;;5.68;;
58756;SDS011;44527;47.460;19.016;2023-06-14T05:13:39;10.25;;;5.20;;
58756;SDS011;44527;47.460;19.016;2023-06-14T05:16:44;9.25;;;5.60;;
58756;SDS011;44527;47.460;19.016;2023-06-14T05:19:47;8.23;;;5.43;;
58756;SDS011;44527;47.460;19.016;2023-06-14T05:22:49;10.38;;;5.50;;
58756;SDS011;44527;47.460;19.016;2023-06-14T05:25:56;8.48;;;5.93;;
58756;SDS011;44527;47.460;19.016;2023-06-14T05:28:59;8.48;;;5.55;;
58756;SDS011;44527;47.460;19.016;2023-06-14T05:32:08;11.60;;;5.68;;
58756;SDS011;44527;47.460;19.016;2023-06-14T05:35:10;8.05;;;5.05;;
58756;SDS011;44527;47.460;19.016;2023-06-14T05:38:13;8.57;;;5.78;;
58756;SDS011;44527;47.460;19.016;2023-06-14T05:41:16;9.18;;;5.50;;
58756;SDS011;44527;47.460;19.016;2023-06-14T05:44:19;8.80;;;5.50;;
58756;SDS011;44527;47.460;19.016;2023-06-14T05:47:22;7.85;;;5.15;;
58756;SDS011;44527;47.460;19.016;2023-06-14T05:50:26;13.43;;;4.78;;
58756;SDS011;44527;47.460;19.016;2023-06-14T05:53:29;9.32;;;5.82;;
58756;SDS011;44527;47.460;19.016;2023-06-14T05:56:32;7.35;;;5.30;;
58756;SDS011;44527;47.460;19.016;2023-06-14T05:59:34;10.70;;;4.82;;
58756;SDS011;44527;47.460;19.016;2023-06-14T06:02:38;13.88;;;5.35;;
58756;SDS011;44527;47.460;19.016;2023-06-14T06:05:42;8.63;;;5.25;;
58756;SDS011;44527;47.460;19.016;2023-06-14T06:09:03;11.38;;;5.10;;
58756;SDS011;44527;47.460;19.016;2023-06-14T06:12:07;12.23;;;5.25;;
58756;SDS011;44527;47.460;19.016;2023-06-14T06:15:13;10.90;;;5.57;;
58756;SDS011;44527;47.460;19.016;2023-06-14T06:21:49;5.97;;;4.20;;
58756;SDS011;44527;47.460;19.016;2023-06-14T06:24:52;7.20;;;4.93;;
58756;SDS011;44527;47.460;19.016;2023-06-14T06:27:55;8.65;;;5.43;;
58756;SDS011;44527;47.460;19.016;2023-06-14T06:31:00;13.73;;;5.37;;
58756;SDS011;44527;47.460;19.016;2023-06-14T06:34:06;6.75;;;4.75;;
58756;SDS011;44527;47.460;19.016;2023-06-14T06:37:09;6.80;;;4.32;;
58756;SDS011;44527;47.460;19.016;2023-06-14T06:40:11;5.93;;;4.30;;
58756;SDS011;44527;47.460;19.016;2023-06-14T06:43:14;6.50;;;3.95;;
58756;SDS011;44527;47.460;19.016;2023-06-14T06:46:19;10.68;;;4.95;;
58756;SDS011;44527;47.460;19.016;2023-06-14T06:49:22;10.00;;;5.20;;
58756;SDS011;44527;47.460;19.016;2023-06-14T06:52:26;8.82;;;4.72;;
58756;SDS011;44527;47.460;19.016;2023-06-14T06:55:28;9.75;;;4.87;;
58756;SDS011;44527;47.460;19.016;2023-06-14T06:58:34;8.45;;;4.57;;
58756;SDS011;44527;47.460;19.016;2023-06-14T07:01:37;10.32;;;4.93;;
58756;SDS011;44527;47.460;19.016;2023-06-14T07:04:40;10.45;;;5.30;;
58756;SDS011;44527;47.460;19.016;2023-06-14T07:07:45;9.90;;;4.87;;
58756;SDS011;44527;47.460;19.016;2023-06-14T07:10:47;13.38;;;5.00;;
58756;SDS011;44527;47.460;19.016;2023-06-14T07:13:50;8.60;;;5.35;;
58756;SDS011;44527;47.460;19.016;2023-06-14T07:16:55;16.92;;;5.37;;
58756;SDS011;44527;47.460;19.016;2023-06-14T07:20:04;11.12;;;4.75;;
58756;SDS011;44527;47.460;19.016;2023-06-14T07:23:11;12.80;;;5.25;;
58756;SDS011;44527;47.460;19.016;2023-06-14T07:26:13;10.98;;;4.15;;
58756;SDS011;44527;47.460;19.016;2023-06-14T07:29:26;8.02;;;4.37;;
58756;SDS011;44527;47.460;19.016;2023-06-14T07:32:29;9.25;;;4.95;;
58756;SDS011;44527;47.460;19.016;2023-06-14T07:35:32;6.57;;;4.25;;
58756;SDS011;44527;47.460;19.016;2023-06-14T07:38:35;7.10;;;4.70;;
58756;SDS011;44527;47.460;19.016;2023-06-14T07:41:38;7.43;;;4.12;;
58756;SDS011;44527;47.460;19.016;2023-06-14T07:44:42;10.05;;;4.25;;
58756;SDS011;44527;47.460;19.016;2023-06-14T07:47:48;12.70;;;5.22;;
58756;SDS011;44527;47.460;19.016;2023-06-14T07:50:52;9.82;;;4.37;;
58756;SDS011;44527;47.460;19.016;2023-06-14T07:53:55;11.07;;;4.37;;
58756;SDS011;44527;47.460;19.016;2023-06-14T07:56:58;17.15;;;4.95;;
58756;SDS011;44527;47.460;19.016;2023-06-14T08:00:03;13.27;;;4.30;;
58756;SDS011;44527;47.460;19.016;2023-06-14T08:03:14;11.93;;;4.50;;
58756;SDS011;44527;47.460;19.016;2023-06-14T08:06:20;9.65;;;5.15;;
58756;SDS011;44527;47.460;19.016;2023-06-14T08:09:25;9.68;;;4.80;;
58756;SDS011;44527;47.460;19.016;2023-06-14T08:12:31;10.15;;;4.85;;
58756;SDS011;44527;47.460;19.016;2023-06-14T08:15:34;9.55;;;4.90;;
58756;SDS011;44527;47.460;19.016;2023-06-14T08:18:39;16.48;;;4.93;;
58756;SDS011;44527;47.460;19.016;2023-06-14T08:21:42;10.55;;;4.90;;
58756;SDS011;44527;47.460;19.016;2023-06-14T08:24:46;10.27;;;4.47;;
58756;SDS011;44527;47.460;19.016;2023-06-14T08:27:48;11.45;;;4.50;;
58756;SDS011;44527;47.460;19.016;2023-06-14T08:30:52;10.82;;;4.20;;
58756;SDS011;44527;47.460;19.016;2023-06-14T08:33:54;7.45;;;4.93;;
58756;SDS011;44527;47.460;19.016;2023-06-14T08:36:57;11.90;;;4.50;;
58756;SDS011;44527;47.460;19.016;2023-06-14T08:40:00;15.45;;;4.30;;
58756;SDS011;44527;47.460;19.016;2023-06-14T08:43:06;6.70;;;4.75;;
58756;SDS011;44527;47.460;19.016;2023-06-14T08:46:09;10.80;;;4.80;;
58756;SDS011;44527;47.460;19.016;2023-06-14T08:49:15;7.37;;;4.72;;
58756;SDS011;44527;47.460;19.016;2023-06-14T08:52:19;19.42;;;3.95;;
58756;SDS011;44527;47.460;19.016;2023-06-14T08:55:25;6.90;;;3.75;;
58756;SDS011;44527;47.460;19.016;2023-06-14T08:58:29;11.68;;;4.07;;
58756;SDS011;44527;47.460;19.016;2023-06-14T09:01:36;11.45;;;3.92;;
58756;SDS011;44527;47.460;19.016;2023-06-14T09:04:41;12.98;;;4.03;;
58756;SDS011;44527;47.460;19.016;2023-06-14T09:07:49;8.70;;;3.85;;
58756;SDS011;44527;47.460;19.016;2023-06-14T09:10:52;9.88;;;4.68;;
58756;SDS011;44527;47.460;19.016;2023-06-14T09:13:56;16.00;;;4.57;;
58756;SDS011;44527;47.460;19.016;2023-06-14T09:16:58;10.80;;;4.40;;
58756;SDS011;44527;47.460;19.016;2023-06-14T09:20:04;6.80;;;3.75;;
58756;SDS011;44527;47.460;19.016;2023-06-14T09:23:13;6.45;;;4.10;;
58756;SDS011;44527;47.460;19.016;2023-06-14T09:26:17;7.53;;;4.25;;
58756;SDS011;44527;47.460;19.016;2023-06-14T09:32:27;16.33;;;3.50;;
58756;SDS011;44527;47.460;19.016;2023-06-14T09:35:33;12.25;;;4.00;;
58756;SDS011;44527;47.460;19.016;2023-06-14T09:38:36;7.70;;;3.55;;
58756;SDS011;44527;47.460;19.016;2023-06-14T09:41:39;7.55;;;3.42;;
58756;SDS011;44527;47.460;19.016;2023-06-14T09:44:44;13.75;;;4.12;;
58756;SDS011;44527;47.460;19.016;2023-06-14T09:47:50;14.40;;;4.07;;
58756;SDS011;44527;47.460;19.016;2023-06-14T09:51:12;6.95;;;3.72;;
58756;SDS011;44527;47.460;19.016;2023-06-14T09:54:19;17.50;;;4.10;;
58756;SDS011;44527;47.460;19.016;2023-06-14T09:57:26;9.55;;;3.67;;
58756;SDS011;44527;47.460;19.016;2023-06-14T10:00:33;12.00;;;3.92;;
58756;SDS011;44527;47.460;19.016;2023-06-14T10:03:37;11.05;;;3.55;;
58756;SDS011;44527;47.460;19.016;2023-06-14T10:07:00;7.12;;;3.47;;
58756;SDS011;44527;47.460;19.016;2023-06-14T10:10:05;8.23;;;3.35;;
58756;SDS011;44527;47.460;19.016;2023-06-14T10:13:09;9.35;;;3.45;;
58756;SDS011;44527;47.460;19.016;2023-06-14T10:16:17;7.20;;;3.60;;
58756;SDS011;44527;47.460;19.016;2023-06-14T10:19:27;12.98;;;3.55;;
58756;SDS011;44527;47.460;19.016;2023-06-14T10:22:40;8.88;;;3.30;;
58756;SDS011;44527;47.460;19.016;2023-06-14T10:25:50;7.37;;;3.70;;
58756;SDS011;44527;47.460;19.016;2023-06-14T10:29:00;5.60;;;3.05;;
58756;SDS011;44527;47.460;19.016;2023-06-14T10:32:13;6.55;;;2.47;;
58756;SDS011;44527;47.460;19.016;2023-06-14T10:35:16;3.62;;;2.25;;
58756;SDS011;44527;47.460;19.016;2023-06-14T10:38:19;4.25;;;2.72;;
58756;SDS011;44527;47.460;19.016;2023-06-14T10:41:35;3.78;;;2.50;;
58756;SDS011;44527;47.460;19.016;2023-06-14T10:44:51;5.70;;;2.47;;
58756;SDS011;44527;47.460;19.016;2023-06-14T10:47:57;5.97;;;3.12;;
58756;SDS011;44527;47.460;19.016;2023-06-14T10:51:00;10.65;;;3.00;;
58756;SDS011;44527;47.460;19.016;2023-06-14T10:54:05;7.05;;;2.40;;
58756;SDS011;44527;47.460;19.016;2023-06-14T10:57:14;6.47;;;3.03;;
58756;SDS011;44527;47.460;19.016;2023-06-14T11:00:18;5.35;;;2.70;;
58756;SDS011;44527;47.460;19.016;2023-06-14T11:06:58;9.60;;;2.78;;
58756;SDS011;44527;47.460;19.016;2023-06-14T11:13:41;5.12;;;2.65;;
58756;SDS011;44527;47.460;19.016;2023-06-14T11:16:49;3.50;;;2.22;;
58756;SDS011;44527;47.460;19.016;2023-06-14T11:20:12;5.80;;;2.80;;
58756;SDS011;44527;47.460;19.016;2023-06-14T11:23:21;4.07;;;2.58;;
58756;SDS011;44527;47.460;19.016;2023-06-14T11:26:29;6.55;;;2.30;;
58756;SDS011;44527;47.460;19.016;2023-06-14T11:29:33;4.93;;;2.47;;
58756;SDS011;44527;47.460;19.016;2023-06-14T11:32:36;4.05;;;2.37;;
58756;SDS011;44527;47.460;19.016;2023-06-14T11:35:42;4.60;;;2.47;;
58756;SDS011;44527;47.460;19.016;2023-06-14T11:38:47;4.60;;;2.33;;
58756;SDS011;44527;47.460;19.016;2023-06-14T11:41:50;5.57;;;2.35;;
58756;SDS011;44527;47.460;19.016;2023-06-14T11:44:53;7.10;;;2.67;;
58756;SDS011;44527;47.460;19.016;2023-06-14T11:48:09;5.20;;;2.65;;
58756;SDS011;44527;47.460;19.016;2023-06-14T11:51:12;4.07;;;2.47;;
58756;SDS011;44527;47.460;19.016;2023-06-14T11:54:14;6.00;;;2.33;;
58756;SDS011;44527;47.460;19.016;2023-06-14T11:57:18;5.65;;;2.80;;
58756;SDS011;44527;47.460;19.016;2023-06-14T12:00:24;5.70;;;2.45;;
58756;SDS011;44527;47.460;19.016;2023-06-14T12:03:28;5.73;;;2.40;;
58756;SDS011;44527;47.460;19.016;2023-06-14T12:06:30;4.55;;;2.53;;
58756;SDS011;44527;47.460;19.016;2023-06-14T12:09:38;7.00;;;2.95;;
58756;SDS011;44527;47.460;19.016;2023-06-14T12:12:41;4.97;;;2.50;;
58756;SDS011;44527;47.460;19.016;2023-06-14T12:15:44;6.10;;;2.53;;
58756;SDS011;44527;47.460;19.016;2023-06-14T12:18:46;5.80;;;2.28;;
58756;SDS011;44527;47.460;19.016;2023-06-14T12:21:49;4.70;;;2.70;;
58756;SDS011;44527;47.460;19.016;2023-06-14T12:24:53;5.53;;;2.47;;
58756;SDS011;44527;47.460;19.016;2023-06-14T12:27:55;8.77;;;2.35;;
58756;SDS011;44527;47.460;19.016;2023-06-14T12:30:58;5.05;;;2.60;;
58756;SDS011;44527;47.460;19.016;2023-06-14T12:34:01;5.53;;;2.20;;
58756;SDS011;44527;47.460;19.016;2023-06-14T12:37:03;4.10;;;2.30;;
58756;SDS011;44527;47.460;19.016;2023-06-14T12:40:12;4.37;;;2.62;;
58756;SDS011;44527;47.460;19.016;2023-06-14T12:43:15;7.75;;;2.30;;
58756;SDS011;44527;47.460;19.016;2023-06-14T12:46:21;6.15;;;2.35;;
58756;SDS011;44527;47.460;19.016;2023-06-14T12:49:24;3.20;;;2.20;;
58756;SDS011;44527;47.460;19.016;2023-06-14T12:52:27;3.45;;;2.22;;
58756;SDS011;44527;47.460;19.016;2023-06-14T12:55:29;4.18;;;2.40;;
58756;SDS011;44527;47.460;19.016;2023-06-14T12:58:32;3.65;;;2.08;;
58756;SDS011;44527;47.460;19.016;2023-06-14T13:01:34;7.90;;;2.58;;
58756;SDS011;44527;47.460;19.016;2023-06-14T13:04:37;4.47;;;2.47;;
58756;SDS011;44527;47.460;19.016;2023-06-14T13:07:39;6.47;;;2.60;;
58756;SDS011;44527;47.460;19.016;2023-06-14T13:10:42;10.38;;;3.10;;
58756;SDS011;44527;47.460;19.016;2023-06-14T13:13:44;4.25;;;2.50;;
58756;SDS011;44527;47.460;19.016;2023-06-14T13:16:47;4.70;;;2.47;;
58756;SDS011;44527;47.460;19.016;2023-06-14T13:19:49;4.07;;;2.58;;
58756;SDS011;44527;47.460;19.016;2023-06-14T13:22:52;8.88;;;2.45;;
58756;SDS011;44527;47.460;19.016;2023-06-14T13:25:54;6.05;;;2.60;;
58756;SDS011;44527;47.460;19.016;2023-06-14T13:28:57;5.53;;;2.40;;
58756;SDS011;44527;47.460;19.016;2023-06-14T13:31:59;6.40;;;2.80;;
58756;SDS011;44527;47.460;19.016;2023-06-14T13:35:03;4.53;;;2.67;;
58756;SDS011;44527;47.460;19.016;2023-06-14T13:38:06;4.30;;;2.33;;
58756;SDS011;44527;47.460;19.016;2023-06-14T13:41:08;7.50;;;2.60;;
58756;SDS011;44527;47.460;19.016;2023-06-14T13:44:11;6.70;;;2.70;;
58756;SDS011;44527;47.460;19.016;2023-06-14T13:47:18;7.78;;;2.62;;
58756;SDS011;44527;47.460;19.016;2023-06-14T13:50:20;8.75;;;2.92;;
58756;SDS011;44527;47.460;19.016;2023-06-14T13:53:23;8.27;;;2.55;;
58756;SDS011;44527;47.460;19.016;2023-06-14T13:56:25;6.85;;;2.53;;
58756;SDS011;44527;47.460;19.016;2023-06-14T13:59:28;9.32;;;2.78;;
58756;SDS011;44527;47.460;19.016;2023-06-14T14:02:30;4.25;;;2.30;;
58756;SDS011;44527;47.460;19.016;2023-06-14T14:05:33;12.65;;;2.50;;
58756;SDS011;44527;47.460;19.016;2023-06-14T14:08:35;7.22;;;2.87;;
58756;SDS011;44527;47.460;19.016;2023-06-14T14:11:38;4.12;;;2.60;;
58756;SDS011;44527;47.460;19.016;2023-06-14T14:14:41;8.93;;;2.40;;
58756;SDS011;44527;47.460;19.016;2023-06-14T14:17:44;6.00;;;2.72;;
58756;SDS011;44527;47.460;19.016;2023-06-14T14:20:47;7.55;;;2.47;;
58756;SDS011;44527;47.460;19.016;2023-06-14T14:23:50;9.75;;;2.83;;
58756;SDS011;44527;47.460;19.016;2023-06-14T14:26:53;10.82;;;2.45;;
58756;SDS011;44527;47.460;19.016;2023-06-14T14:29:56;4.22;;;2.87;;
58756;SDS011;44527;47.460;19.016;2023-06-14T14:32:58;8.70;;;2.90;;
58756;SDS011;44527;47.460;19.016;2023-06-14T14:36:01;4.60;;;2.40;;
58756;SDS011;44527;47.460;19.016;2023-06-14T14:39:06;7.72;;;2.33;;
58756;SDS011;44527;47.460;19.016;2023-06-14T14:42:09;6.25;;;3.05;;
58756;SDS011;44527;47.460;19.016;2023-06-14T14:45:13;9.43;;;2.75;;
58756;SDS011;44527;47.460;19.016;2023-06-14T14:48:15;4.07;;;2.55;;
58756;SDS011;44527;47.460;19.016;2023-06-14T14:51:18;4.28;;;2.55;;
58756;SDS011;44527;47.460;19.016;2023-06-14T14:54:20;5.05;;;2.50;;
58756;SDS011;44527;47.460;19.016;2023-06-14T14:57:23;9.18;;;3.00;;
58756;SDS011;44527;47.460;19.016;2023-06-14T15:00:28;4.72;;;2.28;;
58756;SDS011;44527;47.460;19.016;2023-06-14T15:03:42;4.85;;;2.45;;
58756;SDS011;44527;47.460;19.016;2023-06-14T15:06:51;6.10;;;2.05;;
58756;SDS011;44527;47.460;19.016;2023-06-14T15:09:54;6.10;;;2.72;;
58756;SDS011;44527;47.460;19.016;2023-06-14T15:12:57;6.35;;;1.90;;
58756;SDS011;44527;47.460;19.016;2023-06-14T15:15:59;4.90;;;2.20;;
58756;SDS011;44527;47.460;19.016;2023-06-14T15:19:02;8.82;;;2.75;;
58756;SDS011;44527;47.460;19.016;2023-06-14T15:22:04;5.72;;;2.35;;
58756;SDS011;44527;47.460;19.016;2023-06-14T15:25:08;5.22;;;2.40;;
58756;SDS011;44527;47.460;19.016;2023-06-14T15:28:11;3.80;;;2.05;;
58756;SDS011;44527;47.460;19.016;2023-06-14T15:31:14;7.37;;;2.83;;
58756;SDS011;44527;47.460;19.016;2023-06-14T15:34:16;11.05;;;2.30;;
58756;SDS011;44527;47.460;19.016;2023-06-14T15:37:19;4.22;;;2.40;;
58756;SDS011;44527;47.460;19.016;2023-06-14T15:40:21;4.50;;;2.35;;
58756;SDS011;44527;47.460;19.016;2023-06-14T15:43:24;4.00;;;2.25;;
58756;SDS011;44527;47.460;19.016;2023-06-14T15:46:26;7.40;;;2.35;;
58756;SDS011;44527;47.460;19.016;2023-06-14T15:49:29;4.90;;;2.62;;
58756;SDS011;44527;47.460;19.016;2023-06-14T15:52:31;6.37;;;2.03;;
58756;SDS011;44527;47.460;19.016;2023-06-14T15:55:34;4.15;;;1.90;;
58756;SDS011;44527;47.460;19.016;2023-06-14T15:58:36;5.62;;;2.37;;
58756;SDS011;44527;47.460;19.016;2023-06-14T16:01:39;6.50;;;2.58;;
58756;SDS011;44527;47.460;19.016;2023-06-14T16:04:41;6.15;;;2.67;;
58756;SDS011;44527;47.460;19.016;2023-06-14T16:07:44;6.12;;;2.53;;
58756;SDS011;44527;47.460;19.016;2023-06-14T16:10:46;4.85;;;2.40;;
58756;SDS011;44527;47.460;19.016;2023-06-14T16:13:51;3.53;;;2.37;;
58756;SDS011;44527;47.460;19.016;2023-06-14T16:16:53;3.92;;;2.35;;
58756;SDS011;44527;47.460;19.016;2023-06-14T16:19:59;4.28;;;2.40;;
58756;SDS011;44527;47.460;19.016;2023-06-14T16:23:01;8.30;;;2.10;;
58756;SDS011;44527;47.460;19.016;2023-06-14T16:26:03;5.03;;;2.47;;
58756;SDS011;44527;47.460;19.016;2023-06-14T16:29:06;5.43;;;2.60;;
58756;SDS011;44527;47.460;19.016;2023-06-14T16:32:08;10.32;;;2.60;;
58756;SDS011;44527;47.460;19.016;2023-06-14T16:35:12;3.55;;;2.10;;
58756;SDS011;44527;47.460;19.016;2023-06-14T16:38:14;5.10;;;2.45;;
58756;SDS011;44527;47.460;19.016;2023-06-14T16:41:17;6.03;;;2.28;;
58756;SDS011;44527;47.460;19.016;2023-06-14T16:44:19;4.60;;;2.22;;
58756;SDS011;44527;47.460;19.016;2023-06-14T16:47:22;5.00;;;2.80;;
58756;SDS011;44527;47.460;19.016;2023-06-14T16:50:24;7.32;;;3.30;;
58756;SDS011;44527;47.460;19.016;2023-06-14T16:53:27;3.12;;;2.08;;
58756;SDS011;44527;47.460;19.016;2023-06-14T16:56:29;7.55;;;3.03;;
58756;SDS011;44527;47.460;19.016;2023-06-14T16:59:33;3.78;;;2.10;;
58756;SDS011;44527;47.460;19.016;2023-06-14T17:02:35;3.45;;;2.20;;
58756;SDS011;44527;47.460;19.016;2023-06-14T17:05:56;3.72;;;2.22;;
58756;SDS011;44527;47.460;19.016;2023-06-14T17:09:00;5.40;;;2.60;;
58756;SDS011;44527;47.460;19.016;2023-06-14T17:12:02;5.75;;;2.25;;
58756;SDS011;44527;47.460;19.016;2023-06-14T17:15:05;5.35;;;2.50;;
58756;SDS011;44527;47.460;19.016;2023-06-14T17:18:08;8.00;;;2.12;;
58756;SDS011;44527;47.460;19.016;2023-06-14T17:21:12;9.88;;;2.08;;
58756;SDS011;44527;47.460;19.016;2023-06-14T17:24:16;3.87;;;1.92;;
58756;SDS011;44527;47.460;19.016;2023-06-14T17:27:27;5.40;;;2.03;;
58756;SDS011;44527;47.460;19.016;2023-06-14T17:30:30;3.70;;;2.15;;
58756;SDS011;44527;47.460;19.016;2023-06-14T17:33:32;3.80;;;2.25;;
58756;SDS011;44527;47.460;19.016;2023-06-14T17:36:35;5.78;;;2.22;;
58756;SDS011;44527;47.460;19.016;2023-06-14T17:39:37;2.97;;;2.03;;
58756;SDS011;44527;47.460;19.016;2023-06-14T17:42:43;4.72;;;2.10;;
58756;SDS011;44527;47.460;19.016;2023-06-14T17:45:45;6.07;;;2.33;;
58756;SDS011;44527;47.460;19.016;2023-06-14T17:48:48;3.72;;;2.20;;
58756;SDS011;44527;47.460;19.016;2023-06-14T17:51:50;5.78;;;2.10;;
58756;SDS011;44527;47.460;19.016;2023-06-14T17:54:53;4.07;;;2.12;;
58756;SDS011;44527;47.460;19.016;2023-06-14T17:57:55;5.87;;;2.22;;
58756;SDS011;44527;47.460;19.016;2023-06-14T18:00:57;6.57;;;2.33;;
58756;SDS011;44527;47.460;19.016;2023-06-14T18:04:00;4.37;;;2.37;;
58756;SDS011;44527;47.460;19.016;2023-06-14T18:07:03;5.45;;;2.70;;
58756;SDS011;44527;47.460;19.016;2023-06-14T18:10:06;6.93;;;3.17;;
58756;SDS011;44527;47.460;19.016;2023-06-14T18:13:08;11.90;;;2.92;;
58756;SDS011;44527;47.460;19.016;2023-06-14T18:16:11;8.82;;;3.28;;
58756;SDS011;44527;47.460;19.016;2023-06-14T18:19:16;8.05;;;2.80;;
58756;SDS011;44527;47.460;19.016;2023-06-14T18:22:19;4.68;;;2.37;;